Time;durP1;ratioP1;P1;durP2;ratioP2;P2;SDS_P1;SDS_P2;PMS_P1;PMS_P2;Temp;Humidity;BMP_temperature;BMP_pressure;BME280_temperature;BME280_humidity;BME280_pressure;Samples;Min_cycle;Max_cycle;Signal;HPM_P1;HPM_P2
2022/07/31 00:00:49;;;;;;;4.23;2.50;;;;;;;20.30;51.93;98324.97;5051215;28;20291;-70
2022/07/31 00:03:15;;;;;;;7.17;2.37;;;;;;;20.20;52.45;98329.59;5064505;28;20287;-70
2022/07/31 00:05:42;;;;;;;2.90;1.93;;;;;;;19.98;53.16;98329.09;5068670;28;20232;-70
2022/07/31 00:08:08;;;;;;;3.50;2.00;;;;;;;19.88;53.17;98332.59;5069233;28;20283;-70
2022/07/31 00:10:35;;;;;;;3.23;2.10;;;;;;;19.82;53.53;98330.19;5053775;28;20567;-70
2022/07/31 00:13:03;;;;;;;3.10;2.00;;;;;;;19.88;53.47;98331.78;5053163;28;20209;-69
2022/07/31 00:15:30;;;;;;;2.93;2.20;;;;;;;19.88;52.82;98323.69;5053228;28;20289;-69
2022/07/31 00:17:56;;;;;;;3.20;1.90;;;;;;;19.73;53.24;98321.00;5052831;28;20755;-69
2022/07/31 00:20:23;;;;;;;3.03;1.93;;;;;;;19.64;54.19;98324.25;5053026;28;20221;-70
2022/07/31 00:22:50;;;;;;;2.20;2.00;;;;;;;19.62;54.40;98320.19;5053073;28;20296;-69
2022/07/31 00:25:17;;;;;;;2.20;1.90;;;;;;;19.63;54.73;98319.16;5053014;28;20328;-69
2022/07/31 00:27:44;;;;;;;3.40;2.17;;;;;;;19.63;54.90;98319.16;5052614;28;20686;-70
2022/07/31 00:30:12;;;;;;;2.83;2.30;;;;;;;19.66;55.18;98318.59;5054615;28;20233;-69
2022/07/31 00:32:39;;;;;;;2.50;2.30;;;;;;;19.67;55.58;98324.81;5056593;28;20208;-69
2022/07/31 00:35:06;;;;;;;3.17;2.40;;;;;;;19.72;55.90;98322.09;5056514;28;20212;-70
2022/07/31 00:37:36;;;;;;;3.43;3.07;;;;;;;19.67;56.84;98323.72;5056711;28;20232;-70
2022/07/31 00:40:05;;;;;;;4.37;2.80;;;;;;;19.74;57.09;98318.03;5056460;28;20229;-69
2022/07/31 00:42:31;;;;;;;4.93;3.40;;;;;;;19.71;57.33;98317.78;5057238;28;20216;-69
2022/07/31 00:44:58;;;;;;;4.17;3.27;;;;;;;19.81;57.49;98315.06;5056638;28;20232;-70
2022/07/31 00:47:26;;;;;;;5.10;3.30;;;;;;;19.67;58.20;98315.63;5056685;28;20292;-70
2022/07/31 00:49:52;;;;;;;3.40;3.10;;;;;;;19.66;58.38;98320.50;5056574;28;20225;-70
2022/07/31 00:52:19;;;;;;;4.00;3.50;;;;;;;19.64;58.87;98316.16;5056363;28;20209;-69
2022/07/31 00:54:45;;;;;;;4.77;3.53;;;;;;;19.52;59.57;98312.94;5057302;28;20291;-70
2022/07/31 00:57:12;;;;;;;5.93;3.47;;;;;;;19.44;60.36;98318.03;5067374;28;20724;-69
2022/07/31 00:59:38;;;;;;;4.77;3.77;;;;;;;19.38;61.21;98317.25;5056286;28;20229;-70
2022/07/31 01:02:05;;;;;;;5.20;4.00;;;;;;;19.36;61.47;98319.38;5055223;28;20201;-70
2022/07/31 01:04:31;;;;;;;4.37;3.67;;;;;;;19.32;61.83;98320.19;5055206;28;20294;-70
2022/07/31 01:06:59;;;;;;;5.47;3.90;;;;;;;19.29;62.14;98318.84;5055346;28;20284;-69
2022/07/31 01:09:25;;;;;;;5.07;3.80;;;;;;;19.36;61.89;98323.97;5055840;28;20225;-70
2022/07/31 01:12:07;;;;;;;4.37;3.70;;;;;;;19.11;63.62;98323.91;5054025;28;20213;-69
2022/07/31 01:14:46;;;;;;;6.90;3.97;;;;;;;19.11;63.78;98327.41;5050094;28;20201;-70
2022/07/31 01:17:13;;;;;;;5.10;3.67;;;;;;;19.18;63.91;98325.25;5057767;28;20284;-70
2022/07/31 01:19:44;;;;;;;5.10;3.80;;;;;;;19.14;64.32;98326.88;5076441;28;20315;-70
2022/07/31 01:22:37;;;;;;;5.13;4.03;;;;;;;19.13;64.92;98325.25;5063116;28;20199;-70
2022/07/31 01:25:10;;;;;;;4.07;3.67;;;;;;;19.04;65.68;98324.16;5055815;28;20316;-69
2022/07/31 01:27:51;;;;;;;5.03;3.83;;;;;;;19.05;65.83;98324.97;5055628;28;20216;-70
2022/07/31 01:30:19;;;;;;;4.43;3.73;;;;;;;19.05;66.04;98328.47;5055435;28;20313;-69
2022/07/31 01:32:51;;;;;;;6.67;4.00;;;;;;;19.09;65.69;98329.56;5055791;28;20288;-70
2022/07/31 01:35:24;;;;;;;6.57;3.70;;;;;;;19.02;66.01;98323.63;5018425;28;20209;-69
2022/07/31 01:37:53;;;;;;;4.30;3.70;;;;;;;18.88;66.62;98330.59;5035741;28;20192;-69
2022/07/31 01:40:42;;;;;;;5.67;3.37;;;;;;;18.86;67.12;98329.25;5035084;28;20312;-70
2022/07/31 01:43:14;;;;;;;3.63;3.30;;;;;;;18.87;67.47;98326.25;5035105;28;20561;-70
2022/07/31 01:45:43;;;;;;;4.10;3.70;;;;;;;18.84;68.11;98326.81;5035226;28;20210;-70
2022/07/31 01:48:14;;;;;;;5.20;3.83;;;;;;;18.76;68.79;98321.09;5043585;28;20248;-69
2022/07/31 01:50:43;;;;;;;4.60;3.47;;;;;;;18.64;69.37;98321.34;5055737;28;20192;-69
2022/07/31 01:53:14;;;;;;;5.43;3.67;;;;;;;18.66;69.63;98318.38;5055090;28;20562;-69
2022/07/31 01:55:43;;;;;;;4.40;3.80;;;;;;;18.71;69.70;98321.91;5055167;28;20276;-69
2022/07/31 01:58:11;;;;;;;5.43;4.23;;;;;;;18.67;70.03;98322.69;5054945;28;20205;-70
2022/07/31 02:00:40;;;;;;;5.60;4.33;;;;;;;18.67;70.29;98326.22;5055327;28;20232;-69
2022/07/31 02:03:08;;;;;;;5.97;4.50;;;;;;;18.63;71.04;98325.09;5055256;28;20205;-69
2022/07/31 02:05:36;;;;;;;4.30;3.90;;;;;;;18.54;71.56;98320.47;5054741;28;20725;-69
2022/07/31 02:08:07;;;;;;;4.43;4.03;;;;;;;18.55;71.57;98319.44;5054766;28;20301;-69
2022/07/31 02:10:35;;;;;;;4.40;4.00;;;;;;;18.46;72.26;98319.09;5064650;28;20729;-69
2022/07/31 02:13:02;;;;;;;4.80;4.20;;;;;;;18.49;71.97;98320.47;5074849;28;20200;-69
2022/07/31 02:15:31;;;;;;;4.83;4.43;;;;;;;18.51;72.04;98316.44;5074649;28;20743;-69
2022/07/31 02:17:58;;;;;;;4.13;3.83;;;;;;;18.48;72.51;98327.75;5074484;28;20243;-69
2022/07/31 02:20:26;;;;;;;5.17;4.07;;;;;;;18.45;72.53;98312.09;5074823;28;20224;-69
2022/07/31 02:22:54;;;;;;;4.67;4.13;;;;;;;18.47;72.68;98314.53;5060489;28;20215;-69
2022/07/31 02:25:21;;;;;;;4.27;3.80;;;;;;;18.38;73.34;98316.94;5036959;28;20221;-69
2022/07/31 02:27:49;;;;;;;5.70;4.00;;;;;;;18.33;73.34;98308.81;5054905;28;20208;-69
2022/07/31 02:30:16;;;;;;;4.90;3.90;;;;;;;18.30;73.87;98308.50;5054541;28;20237;-69
2022/07/31 02:32:46;;;;;;;5.90;4.00;;;;;;;18.28;74.08;98311.44;5054352;28;20248;-70
2022/07/31 02:35:15;;;;;;;6.37;3.70;;;;;;;18.22;74.42;98306.31;5054284;28;20664;-69
2022/07/31 02:37:42;;;;;;;4.43;3.87;;;;;;;18.12;74.92;98306.25;5054491;28;20213;-69
2022/07/31 02:40:11;;;;;;;4.30;4.00;;;;;;;18.11;74.92;98305.47;5054261;28;20240;-69
2022/07/31 02:42:39;;;;;;;4.70;4.30;;;;;;;18.11;75.02;98305.47;5054497;28;20202;-69
2022/07/31 02:45:08;;;;;;;4.50;3.80;;;;;;;18.07;75.27;98298.16;5054348;28;20252;-69
2022/07/31 02:47:37;;;;;;;4.40;4.00;;;;;;;18.08;75.18;98295.22;5054177;28;20205;-69
2022/07/31 02:50:05;;;;;;;5.07;4.20;;;;;;;18.10;75.16;98298.44;5053600;28;20729;-69
2022/07/31 02:52:33;;;;;;;4.37;3.97;;;;;;;18.09;75.56;98309.50;5053769;28;20209;-69
2022/07/31 02:55:01;;;;;;;5.33;4.00;;;;;;;18.10;75.47;98301.13;5054204;28;20699;-69
2022/07/31 02:57:28;;;;;;;6.33;4.20;;;;;;;18.04;75.88;98310.25;5053724;28;20683;-69
2022/07/31 02:59:54;;;;;;;4.27;3.87;;;;;;;17.95;76.23;98306.44;5053957;28;20826;-69
2022/07/31 03:02:21;;;;;;;6.73;4.27;;;;;;;17.95;76.59;98305.59;5054058;28;20304;-69
2022/07/31 03:04:47;;;;;;;7.53;4.27;;;;;;;18.01;76.11;98307.28;5053736;28;20233;-70
2022/07/31 03:07:16;;;;;;;4.30;3.90;;;;;;;17.90;76.73;98309.09;5053499;28;20739;-69
2022/07/31 03:09:42;;;;;;;4.53;4.00;;;;;;;17.90;76.62;98306.41;5056994;28;20252;-69
2022/07/31 03:12:09;;;;;;;4.93;4.03;;;;;;;17.84;76.77;98307.44;5073661;28;20200;-69
2022/07/31 03:14:37;;;;;;;3.90;3.57;;;;;;;17.79;77.07;98303.91;5035303;28;20743;-69
2022/07/31 03:17:05;;;;;;;5.70;3.70;;;;;;;17.75;77.53;98302.78;5053500;28;20205;-69
2022/07/31 03:19:32;;;;;;;5.17;4.20;;;;;;;17.78;77.27;98307.66;5052544;28;20229;-69
2022/07/31 03:21:59;;;;;;;4.00;3.70;;;;;;;17.80;76.75;98311.72;5053178;28;20576;-69
2022/07/31 03:24:27;;;;;;;5.03;3.80;;;;;;;17.80;76.98;98309.03;5052526;28;20205;-69
2022/07/31 03:26:53;;;;;;;4.13;3.70;;;;;;;17.78;76.75;98313.84;5051804;28;20729;-69
2022/07/31 03:29:19;;;;;;;5.67;3.83;;;;;;;17.78;76.39;98304.97;5052264;28;20261;-70
2022/07/31 03:31:46;;;;;;;4.30;3.90;;;;;;;17.72;76.97;98301.44;5052280;28;20225;-69
2022/07/31 03:34:12;;;;;;;4.93;3.63;;;;;;;17.71;77.20;98302.50;5068146;28;20291;-69
2022/07/31 03:36:39;;;;;;;5.10;3.83;;;;;;;17.62;77.49;98303.22;5072155;28;20257;-69
2022/07/31 03:39:05;;;;;;;4.20;3.80;;;;;;;17.62;77.80;98301.38;5052937;28;20231;-69
2022/07/31 03:41:32;;;;;;;4.50;3.80;;;;;;;17.57;78.10;98293.25;5053338;28;20299;-69
2022/07/31 03:43:59;;;;;;;8.50;3.80;;;;;;;17.66;77.76;98297.09;5035776;28;20292;-69
2022/07/31 03:46:25;;;;;;;4.20;3.53;;;;;;;17.64;77.60;98303.81;5052821;28;20228;-69
2022/07/31 03:48:52;;;;;;;4.70;3.73;;;;;;;17.71;77.26;98299.81;5036538;28;20674;-69
2022/07/31 03:51:19;;;;;;;3.63;3.33;;;;;;;17.62;77.66;98306.75;5059126;28;20639;-69
2022/07/31 03:53:46;;;;;;;4.10;3.30;;;;;;;17.63;77.86;98312.91;5053337;28;20208;-70
2022/07/31 03:56:13;;;;;;;8.77;4.00;;;;;;;17.63;77.74;98313.75;5053059;28;20201;-70
2022/07/31 03:58:40;;;;;;;4.30;3.30;;;;;;;17.68;77.10;98311.09;5052860;28;20225;-69
2022/07/31 04:01:08;;;;;;;5.33;3.50;;;;;;;17.69;76.92;98306.53;5053009;28;20296;-69
2022/07/31 04:03:34;;;;;;;3.83;3.53;;;;;;;17.70;76.93;98308.13;5052735;28;20300;-69
2022/07/31 04:06:00;;;;;;;5.63;3.53;;;;;;;17.68;76.68;98312.94;5056687;28;20232;-69
2022/07/31 04:08:27;;;;;;;3.90;3.33;;;;;;;17.66;76.73;98312.41;5057229;28;20295;-70
2022/07/31 04:10:53;;;;;;;5.80;3.47;;;;;;;17.59;76.97;98315.31;5057022;28;20660;-69
2022/07/31 04:13:20;;;;;;;5.13;3.63;;;;;;;17.61;77.21;98315.06;5056708;28;20201;-69
2022/07/31 04:15:46;;;;;;;6.47;3.60;;;;;;;17.63;77.02;98307.53;5056914;28;20288;-69
2022/07/31 04:18:13;;;;;;;4.50;3.70;;;;;;;17.64;76.90;98309.97;5057370;28;20205;-69
2022/07/31 04:20:39;;;;;;;4.00;3.30;;;;;;;17.67;77.30;98319.41;5056713;28;20295;-69
2022/07/31 04:23:05;;;;;;;5.10;3.40;;;;;;;17.62;77.51;98306.75;5057123;28;20215;-69
2022/07/31 04:25:33;;;;;;;4.13;3.40;;;;;;;17.60;77.72;98314.25;5059798;28;20220;-69
2022/07/31 04:28:00;;;;;;;4.20;3.20;;;;;;;17.64;77.43;98303.81;5076430;28;20295;-69
2022/07/31 04:30:27;;;;;;;6.53;3.73;;;;;;;17.69;76.96;98306.53;5076787;28;20318;-69
2022/07/31 04:32:53;;;;;;;3.90;3.50;;;;;;;17.70;76.71;98306.28;5061906;28;20209;-69
2022/07/31 04:35:20;;;;;;;3.80;3.50;;;;;;;17.72;76.84;98306.00;5055137;28;20202;-70
2022/07/31 04:37:47;;;;;;;4.00;3.70;;;;;;;17.77;77.13;98306.03;5059162;28;20197;-69
2022/07/31 04:40:13;;;;;;;4.23;3.60;;;;;;;17.79;76.50;98309.28;5076516;28;20231;-70
2022/07/31 04:42:41;;;;;;;4.10;3.77;;;;;;;17.81;76.42;98310.63;5065330;28;20251;-70
2022/07/31 04:45:08;;;;;;;4.67;3.83;;;;;;;17.87;76.19;98314.97;5056397;28;20331;-69
2022/07/31 04:47:35;;;;;;;6.13;3.67;;;;;;;18.08;75.05;98324.81;5055943;28;20635;-69
2022/07/31 04:50:02;;;;;;;4.47;3.40;;;;;;;18.08;75.15;98330.19;5056396;28;20298;-69
2022/07/31 04:52:28;;;;;;;4.03;3.57;;;;;;;18.12;74.79;98328.59;5056465;28;20243;-69
2022/07/31 04:54:55;;;;;;;4.40;4.00;;;;;;;18.16;73.91;98332.41;5061345;28;20297;-70
2022/07/31 04:57:21;;;;;;;4.27;3.93;;;;;;;18.14;73.90;98331.84;5056338;28;20205;-69
2022/07/31 04:59:48;;;;;;;4.33;3.93;;;;;;;18.21;73.65;98329.72;5056674;28;20225;-70
2022/07/31 05:02:14;;;;;;;4.40;3.80;;;;;;;18.20;73.42;98325.44;5056114;28;20661;-70
2022/07/31 05:04:40;;;;;;;3.80;3.50;;;;;;;18.31;73.22;98331.66;5056086;28;20690;-70
2022/07/31 05:07:07;;;;;;;4.67;3.80;;;;;;;18.30;73.11;98332.72;5056069;28;20225;-70
2022/07/31 05:09:34;;;;;;;4.40;3.80;;;;;;;18.87;70.98;98341.63;5055892;28;20321;-69
2022/07/31 05:12:01;;;;;;;3.93;3.53;;;;;;;19.54;67.94;98332.34;5055960;28;20221;-69
2022/07/31 05:14:28;;;;;;;6.33;3.27;;;;;;;20.14;65.12;98325.31;5056415;28;20208;-69
2022/07/31 05:16:54;;;;;;;3.70;3.40;;;;;;;20.41;64.42;98329.28;5055312;28;20205;-70
2022/07/31 05:19:21;;;;;;;4.00;3.50;;;;;;;20.31;63.80;98328.50;5055420;28;20311;-70
2022/07/31 05:21:47;;;;;;;5.27;3.40;;;;;;;20.43;62.49;98323.63;5055546;28;20259;-70
2022/07/31 05:24:14;;;;;;;3.50;3.20;;;;;;;19.94;63.78;98319.91;5055579;28;20725;-69
2022/07/31 05:26:40;;;;;;;3.70;3.40;;;;;;;19.60;64.98;98315.06;5055866;28;20313;-70
2022/07/31 05:29:07;;;;;;;3.30;3.00;;;;;;;19.67;64.99;98318.31;5055467;28;20324;-70
2022/07/31 05:31:33;;;;;;;3.73;3.30;;;;;;;19.20;66.69;98314.22;5054506;28;20676;-70
2022/07/31 05:33:59;;;;;;;3.30;3.00;;;;;;;19.16;67.16;98322.03;5055819;28;20211;-70
2022/07/31 05:36:26;;;;;;;4.37;3.00;;;;;;;19.12;67.53;98323.63;5054738;28;20207;-70
2022/07/31 05:38:53;;;;;;;5.50;3.53;;;;;;;19.07;68.42;98325.50;5053552;28;20237;-70
2022/07/31 05:41:19;;;;;;;5.33;3.00;;;;;;;19.09;68.39;98324.16;5051312;28;20212;-70
2022/07/31 05:43:46;;;;;;;3.27;2.97;;;;;;;19.05;68.36;98336.53;5053954;28;20206;-70
2022/07/31 05:46:12;;;;;;;3.50;3.20;;;;;;;19.08;68.41;98324.44;5055362;28;20320;-70
2022/07/31 05:48:40;;;;;;;5.03;3.23;;;;;;;19.11;68.24;98321.22;5053785;28;20271;-70
2022/07/31 05:51:10;;;;;;;3.77;3.30;;;;;;;19.15;68.21;98323.13;5053840;28;20202;-70
2022/07/31 05:53:37;;;;;;;5.00;3.73;;;;;;;19.14;67.58;98334.16;5053761;28;20213;-70
2022/07/31 05:56:04;;;;;;;4.13;3.83;;;;;;;19.15;68.03;98327.69;5054439;28;20201;-70
2022/07/31 05:58:31;;;;;;;3.97;3.27;;;;;;;19.28;67.83;98316.41;5053375;28;20213;-70
2022/07/31 06:00:58;;;;;;;3.80;3.50;;;;;;;19.26;67.74;98322.06;5053084;28;20283;-70
2022/07/31 06:03:26;;;;;;;5.87;3.50;;;;;;;19.25;67.87;98322.34;5053929;28;20284;-70
2022/07/31 06:05:53;;;;;;;3.63;3.27;;;;;;;19.27;67.96;98323.69;5054093;28;20221;-70
2022/07/31 06:08:20;;;;;;;5.83;3.50;;;;;;;19.21;67.65;98334.69;5053973;28;20205;-70
2022/07/31 06:10:46;;;;;;;4.70;3.40;;;;;;;19.27;67.90;98323.69;5055125;28;20299;-70
2022/07/31 06:13:14;;;;;;;4.30;3.23;;;;;;;19.36;67.77;98335.56;5053020;28;20202;-70
2022/07/31 06:15:42;;;;;;;3.67;3.37;;;;;;;19.35;68.06;98339.34;5053206;28;20197;-70
2022/07/31 06:18:08;;;;;;;3.60;3.30;;;;;;;19.38;68.03;98341.50;5054522;28;20292;-70
2022/07/31 06:20:35;;;;;;;3.80;3.30;;;;;;;19.44;68.11;98337.72;5051677;28;20225;-70
2022/07/31 06:23:01;;;;;;;4.87;3.57;;;;;;;19.43;68.33;98340.69;5053530;28;20209;-70
2022/07/31 06:25:28;;;;;;;3.27;2.93;;;;;;;19.51;68.11;98340.97;5054651;28;20216;-70
2022/07/31 06:27:54;;;;;;;3.70;3.07;;;;;;;19.50;67.54;98347.44;5053111;28;20216;-70
2022/07/31 06:30:20;;;;;;;3.27;2.90;;;;;;;19.62;67.09;98346.38;5054203;28;20233;-70
2022/07/31 06:32:47;;;;;;;3.87;3.43;;;;;;;19.76;66.53;98352.84;5053224;28;20653;-70
2022/07/31 06:35:13;;;;;;;3.33;3.03;;;;;;;19.88;66.18;98348.78;5054590;28;20205;-70
2022/07/31 06:37:39;;;;;;;6.43;3.10;;;;;;;19.90;65.56;98348.53;5053248;28;20253;-70
2022/07/31 06:40:06;;;;;;;5.50;3.20;;;;;;;20.20;65.74;98351.19;5054160;28;20316;-70
2022/07/31 06:42:33;;;;;;;3.57;3.23;;;;;;;20.13;65.12;98356.09;5053073;28;20288;-70
2022/07/31 06:44:59;;;;;;;3.40;3.10;;;;;;;20.31;64.93;98358.22;5054651;28;20208;-70
2022/07/31 06:47:26;;;;;;;4.33;3.20;;;;;;;20.35;64.82;98353.88;5052989;28;20228;-70
2022/07/31 06:49:53;;;;;;;4.00;3.10;;;;;;;20.51;64.30;98352.75;5052766;28;20221;-69
2022/07/31 06:52:20;;;;;;;3.27;2.90;;;;;;;20.24;65.12;98352.28;5053863;28;20652;-69
2022/07/31 06:54:46;;;;;;;4.03;3.40;;;;;;;20.27;65.42;98349.03;5050896;28;20732;-70
2022/07/31 06:57:13;;;;;;;3.43;3.13;;;;;;;20.28;65.06;98354.16;5052796;28;20312;-70
2022/07/31 06:59:40;;;;;;;4.70;3.27;;;;;;;20.27;65.13;98346.34;5052693;28;20620;-70
2022/07/31 07:02:07;;;;;;;3.53;3.20;;;;;;;20.42;64.92;98344.41;5054002;28;20296;-70
2022/07/31 07:04:34;;;;;;;4.97;3.40;;;;;;;20.40;64.65;98348.47;5051941;28;20297;-70
2022/07/31 07:07:00;;;;;;;6.27;3.27;;;;;;;20.39;65.09;98349.56;5052847;28;20224;-70
2022/07/31 07:09:26;;;;;;;3.07;2.70;;;;;;;20.43;64.10;98339.81;5052589;28;20304;-70
2022/07/31 07:11:53;;;;;;;3.60;3.27;;;;;;;20.43;64.64;98348.72;5053981;28;20613;-70
2022/07/31 07:14:19;;;;;;;4.97;3.00;;;;;;;20.50;64.38;98345.72;5052703;28;20241;-70
2022/07/31 07:16:45;;;;;;;5.80;3.03;;;;;;;20.55;63.64;98337.59;5053205;28;20213;-69
2022/07/31 07:19:12;;;;;;;3.60;3.23;;;;;;;20.57;63.23;98346.25;5052386;28;20319;-70
2022/07/31 07:21:38;;;;;;;2.80;2.60;;;;;;;20.75;63.34;98329.44;5052977;28;20771;-69
2022/07/31 07:24:05;;;;;;;3.23;2.93;;;;;;;20.77;63.05;98329.94;5051201;28;20292;-69
2022/07/31 07:26:31;;;;;;;3.80;2.77;;;;;;;21.03;62.25;98336.88;5052313;28;20232;-70
2022/07/31 07:28:58;;;;;;;4.00;2.77;;;;;;;21.29;61.46;98333.75;5052750;28;20232;-69
2022/07/31 07:31:24;;;;;;;3.27;2.43;;;;;;;21.23;62.21;98340.28;5055050;28;20205;-70
2022/07/31 07:33:51;;;;;;;2.90;2.57;;;;;;;21.32;61.64;98345.88;5062336;28;20197;-70
2022/07/31 07:36:17;;;;;;;3.67;2.67;;;;;;;21.49;61.61;98346.31;5053723;28;20198;-69
2022/07/31 07:38:44;;;;;;;3.63;2.80;;;;;;;21.64;59.65;98340.78;5053103;28;20316;-69
2022/07/31 07:41:10;;;;;;;4.03;3.10;;;;;;;21.42;60.33;98341.22;5043971;28;20198;-69
2022/07/31 07:43:43;;;;;;;4.97;4.17;;;;;;;21.58;60.25;98345.44;5034332;28;20201;-70
2022/07/31 07:46:10;;;;;;;5.73;3.00;;;;;;;21.60;59.50;98339.72;5049018;28;20236;-69
2022/07/31 07:48:36;;;;;;;2.67;2.47;;;;;;;21.59;59.28;98341.66;5052939;28;20333;-69
2022/07/31 07:51:02;;;;;;;3.60;3.03;;;;;;;21.70;58.20;98345.13;5051265;28;20288;-69
2022/07/31 07:53:29;;;;;;;3.90;2.90;;;;;;;21.79;58.66;98348.84;5071656;28;20200;-69
2022/07/31 07:55:55;;;;;;;3.33;2.80;;;;;;;21.95;58.09;98340.28;5056022;28;20197;-69
2022/07/31 07:58:22;;;;;;;3.57;2.80;;;;;;;21.90;57.92;98334.09;5064091;28;20247;-69
2022/07/31 08:00:48;;;;;;;3.88;2.42;;;;;;;22.14;57.63;98343.06;5059823;28;20284;-69
2022/07/31 08:03:15;;;;;;;3.07;2.70;;;;;;;21.97;57.24;98334.59;5052203;28;20223;-69
2022/07/31 08:05:42;;;;;;;3.13;2.70;;;;;;;22.12;57.63;98337.16;5053753;28;20200;-69
2022/07/31 08:08:08;;;;;;;4.30;2.70;;;;;;;22.17;57.20;98332.50;5072328;28;20574;-69
2022/07/31 08:10:35;;;;;;;2.90;2.60;;;;;;;22.19;56.93;98343.03;5059604;28;20300;-69
2022/07/31 08:13:01;;;;;;;3.57;2.57;;;;;;;22.47;56.32;98334.09;5053023;28;20283;-69
2022/07/31 08:15:28;;;;;;;4.03;2.70;;;;;;;22.47;56.42;98332.19;5058593;28;20200;-69
2022/07/31 08:17:55;;;;;;;3.17;2.58;;;;;;;22.59;55.50;98342.63;5072842;28;20667;-69
2022/07/31 08:20:21;;;;;;;3.42;2.70;;;;;;;22.44;56.22;98342.78;5067739;28;20228;-69
2022/07/31 08:22:47;;;;;;;3.63;2.72;;;;;;;22.46;56.27;98330.59;5072768;28;20209;-69
2022/07/31 08:25:14;;;;;;;4.75;2.80;;;;;;;22.58;56.23;98335.59;5061343;28;20244;-69
2022/07/31 08:27:40;;;;;;;4.53;2.88;;;;;;;22.65;55.77;98336.06;5061058;28;20291;-70
2022/07/31 08:30:08;;;;;;;3.20;2.58;;;;;;;22.79;55.14;98342.41;5066139;28;20676;-70
2022/07/31 08:32:34;;;;;;;3.88;2.50;;;;;;;22.80;53.59;98331.22;5065927;28;20733;-70
2022/07/31 08:35:01;;;;;;;3.63;3.08;;;;;;;22.86;53.88;98340.13;5071354;28;20236;-70
2022/07/31 08:37:29;;;;;;;4.45;2.70;;;;;;;23.11;52.08;98339.78;5072290;28;20295;-70
2022/07/31 08:39:55;;;;;;;3.28;2.95;;;;;;;23.22;52.03;98338.56;5062678;28;20222;-70
2022/07/31 08:42:22;;;;;;;3.97;2.47;;;;;;;22.98;52.67;98337.81;5051560;28;20210;-70
2022/07/31 08:44:48;;;;;;;4.00;2.50;;;;;;;22.99;52.49;98328.56;5051747;28;20288;-70
2022/07/31 08:47:16;;;;;;;2.95;2.50;;;;;;;23.38;51.27;98329.91;5052605;28;20233;-70
2022/07/31 08:49:49;;;;;;;2.97;2.03;;;;;;;23.60;50.55;98327.41;5049990;28;20264;-70
2022/07/31 08:52:24;;;;;;;2.72;2.53;;;;;;;23.47;50.30;98327.34;5056379;28;20209;-70
2022/07/31 08:54:52;;;;;;;4.72;2.50;;;;;;;23.49;49.39;98320.53;5054036;28;20240;-70
2022/07/31 08:57:20;;;;;;;5.70;2.65;;;;;;;23.26;49.61;98326.84;5056210;28;20213;-70
2022/07/31 08:59:51;;;;;;;2.67;2.35;;;;;;;23.89;48.87;98324.47;5055178;28;20231;-70
2022/07/31 09:02:17;;;;;;;2.97;2.42;;;;;;;24.05;49.00;98314.97;5054541;28;20213;-70
2022/07/31 09:04:44;;;;;;;4.53;2.30;;;;;;;23.96;47.61;98309.44;5055813;28;20296;-70
2022/07/31 09:07:14;;;;;;;3.22;2.35;;;;;;;24.26;45.93;98313.50;5054605;28;20291;-70
2022/07/31 09:09:46;;;;;;;3.55;2.25;;;;;;;24.55;45.16;98311.28;5055874;28;20311;-70
2022/07/31 09:12:13;;;;;;;5.38;2.47;;;;;;;24.91;44.18;98313.03;5054974;28;20231;-70
2022/07/31 09:14:48;;;;;;;2.80;2.50;;;;;;;25.06;44.70;98304.53;5055886;28;20304;-70
2022/07/31 09:17:14;;;;;;;2.75;1.90;;;;;;;25.02;43.20;98311.69;5055321;28;20585;-70
2022/07/31 09:19:44;;;;;;;3.15;2.10;;;;;;;25.04;43.29;98314.09;5055769;28;20221;-70
2022/07/31 09:22:28;;;;;;;4.80;2.20;;;;;;;25.16;42.38;98304.31;5054548;28;20660;-70
2022/07/31 09:25:11;;;;;;;3.42;1.92;;;;;;;24.69;43.44;98299.34;5054384;28;20296;-70
2022/07/31 09:27:38;;;;;;;4.00;2.40;;;;;;;25.24;42.60;98300.06;5055302;28;20220;-70
2022/07/31 09:30:06;;;;;;;1.88;1.70;;;;;;;25.52;41.64;98291.50;5053133;28;20233;-70
2022/07/31 09:32:32;;;;;;;5.50;2.15;;;;;;;25.37;41.13;98299.25;5055242;28;20251;-70
2022/07/31 09:35:13;;;;;;;2.45;2.22;;;;;;;25.30;41.64;98290.69;5053760;28;20287;-70
2022/07/31 09:37:39;;;;;;;3.03;2.10;;;;;;;25.86;40.21;98289.00;5054676;28;20724;-70
2022/07/31 09:40:08;;;;;;;3.20;2.35;;;;;;;26.17;39.81;98292.56;5053425;28;20656;-70
2022/07/31 09:42:37;;;;;;;2.47;2.05;;;;;;;26.37;38.82;98289.28;5054749;28;20213;-70
2022/07/31 09:45:03;;;;;;;2.10;1.90;;;;;;;26.72;38.64;98288.31;5053292;28;20201;-70
2022/07/31 09:47:31;;;;;;;2.67;1.85;;;;;;;27.18;37.72;98287.75;5055641;28;20631;-70
2022/07/31 09:50:01;;;;;;;2.22;2.08;;;;;;;26.84;36.57;98284.97;5043462;28;20226;-70
2022/07/31 09:52:30;;;;;;;2.58;2.00;;;;;;;26.88;37.89;98280.47;5035368;28;20231;-70
2022/07/31 09:55:15;;;;;;;2.10;1.90;;;;;;;27.08;36.30;98284.53;5046159;28;20612;-70
2022/07/31 09:57:56;;;;;;;2.45;1.90;;;;;;;27.45;36.09;98279.25;5055329;28;20189;-70
2022/07/31 10:00:24;;;;;;;2.50;2.10;;;;;;;26.43;36.86;98279.84;5054094;28;20307;-70
2022/07/31 10:02:53;;;;;;;1.80;1.70;;;;;;;26.81;37.34;98271.94;5050867;28;20252;-70
2022/07/31 10:05:22;;;;;;;2.72;1.90;;;;;;;26.69;37.55;98269.84;5054942;28;20279;-70
2022/07/31 10:07:50;;;;;;;2.80;2.00;;;;;;;26.95;37.19;98264.41;5049520;28;20225;-70
2022/07/31 10:10:17;;;;;;;3.05;2.00;;;;;;;27.06;36.35;98260.28;5051296;28;20261;-70
2022/07/31 10:12:49;;;;;;;6.30;2.00;;;;;;;27.40;36.61;98259.50;5050758;28;20661;-70
2022/07/31 10:15:18;;;;;;;3.47;1.98;;;;;;;27.51;35.56;98252.56;5052348;28;20236;-70
2022/07/31 10:17:47;;;;;;;1.85;1.65;;;;;;;27.52;35.28;98255.00;5052232;28;20207;-70
2022/07/31 10:20:17;;;;;;;1.90;1.65;;;;;;;26.74;35.85;98256.03;5054385;28;20225;-70
2022/07/31 10:22:48;;;;;;;3.33;1.67;;;;;;;26.72;35.89;98249.31;5050746;28;20212;-70
2022/07/31 10:25:30;;;;;;;4.28;1.95;;;;;;;26.99;35.86;98252.56;5054180;28;20288;-70
2022/07/31 10:27:57;;;;;;;3.30;1.70;;;;;;;27.45;35.46;98241.00;5054009;28;20221;-70
2022/07/31 10:30:25;;;;;;;3.08;1.70;;;;;;;27.28;35.77;98249.25;5052110;28;20754;-70
2022/07/31 10:32:52;;;;;;;1.90;1.80;;;;;;;27.22;35.08;98253.22;5051856;28;20205;-70
2022/07/31 10:35:19;;;;;;;1.83;1.67;;;;;;;26.77;35.92;98249.16;5053956;28;20208;-70
2022/07/31 10:37:54;;;;;;;2.05;1.75;;;;;;;27.17;35.69;98248.72;5053030;28;20205;-70
2022/07/31 10:40:24;;;;;;;4.03;1.70;;;;;;;27.44;35.06;98231.22;5052434;28;20311;-70
2022/07/31 10:42:57;;;;;;;2.20;1.58;;;;;;;27.80;34.55;98226.19;5053817;28;20304;-70
2022/07/31 10:45:25;;;;;;;3.38;1.50;;;;;;;27.76;34.12;98243.53;5054104;28;20272;-70
2022/07/31 10:47:56;;;;;;;1.83;1.67;;;;;;;28.43;33.92;98239.00;5052053;28;20232;-70
2022/07/31 10:50:25;;;;;;;3.80;1.80;;;;;;;27.55;33.96;98237.16;5052946;28;20229;-70
2022/07/31 10:52:51;;;;;;;1.70;1.60;;;;;;;27.54;35.22;98238.28;5053766;28;20210;-70
2022/07/31 10:55:21;;;;;;;1.58;1.42;;;;;;;27.34;35.42;98226.09;5053885;28;20243;-70
2022/07/31 10:57:50;;;;;;;2.88;1.80;;;;;;;27.29;35.65;98223.53;5053315;28;20236;-70
2022/07/31 11:00:19;;;;;;;1.80;1.70;;;;;;;27.06;35.54;98224.78;5053192;28;20225;-70
2022/07/31 11:02:46;;;;;;;1.98;1.73;;;;;;;27.18;35.50;98222.25;5053575;28;20209;-70
2022/07/31 11:05:13;;;;;;;2.72;1.60;;;;;;;27.61;35.33;98212.06;5053693;28;20229;-70
2022/07/31 11:07:42;;;;;;;2.95;1.70;;;;;;;27.65;34.34;98215.75;5053469;28;20225;-70
2022/07/31 11:10:26;;;;;;;1.48;1.38;;;;;;;27.74;34.03;98219.28;5052707;28;20228;-70
2022/07/31 11:13:06;;;;;;;3.20;1.90;;;;;;;27.92;33.90;98204.47;5053422;28;20285;-70
2022/07/31 11:15:33;;;;;;;4.20;1.60;;;;;;;27.79;34.16;98208.16;5053827;28;20296;-70
2022/07/31 11:18:18;;;;;;;3.38;1.75;;;;;;;27.54;35.41;98214.47;5053721;28;20315;-70
2022/07/31 11:20:46;;;;;;;3.40;1.40;;;;;;;27.34;34.76;98208.91;5053692;28;20281;-70
2022/07/31 11:23:15;;;;;;;2.63;1.55;;;;;;;27.01;34.93;98200.41;5053514;28;20671;-70
2022/07/31 11:25:43;;;;;;;2.22;1.70;;;;;;;27.04;35.58;98205.19;5052124;28;20201;-71
2022/07/31 11:28:17;;;;;;;2.03;1.60;;;;;;;26.90;35.21;98201.81;5052958;28;20251;-71
2022/07/31 11:30:59;;;;;;;3.28;1.67;;;;;;;27.10;36.43;98191.06;5053611;28;20651;-70
2022/07/31 11:33:43;;;;;;;2.13;1.80;;;;;;;27.50;35.09;98191.72;5050658;28;20296;-70
2022/07/31 11:36:14;;;;;;;3.85;1.77;;;;;;;27.77;34.46;98191.31;5043026;28;20200;-71
2022/07/31 11:38:49;;;;;;;2.67;1.75;;;;;;;27.53;34.65;98190.25;5049399;28;20255;-70